Flight Track Log - Related Links

Times and Time Zones

All times are in EDT time to prevent confusion due to time zone crossing. See the N974BC flight status page for this flight to view local times or setup timezone preferences in your user account.

Time Position Orientation Groundspeed Altitude Reporting Facility
EDT Latitude Longitude Course Direction KTS MPH feet Rate Location/Type
Wed 06:23:14 PM 24.6069 -81.5875 49° Northeast 87 100 4,900  Level Miami Center
Wed 06:24:15 PM 24.6103 -81.5603 82° East 87 100 5,500 585 Climbing Miami Center
Wed 06:25:17 PM 24.6131 -81.5339 83° East 87 100 6,100 537 Climbing Miami Center
Wed 06:26:18 PM 24.6119 -81.5058 92° East 88 101 6,600 488 Climbing Miami Center
Wed 06:27:00 PM 24.7655 -81.4765 49° Northeast  Level FlightAware Approximate
Wed 06:27:20 PM 24.6122 -81.4783 89° East 88 101 7,100  Level Miami Center
Wed 06:28:00 PM 24.7875 -81.4490 49° Northeast  Level FlightAware Approximate
Wed 06:28:22 PM 24.6164 -81.4500 81° East 89 102 7,700  Level Miami Center
Wed 06:29:23 PM 24.6247 -81.4222 72° East 91 105 8,100 439 Climbing Miami Center
Wed 06:30:25 PM 24.6322 -81.3964 72° East 91 105 8,600 537 Climbing Miami Center
Wed 06:31:26 PM 24.6364 -81.3644 82° East 91 105 9,200 488 Climbing Miami Center
Wed 06:32:28 PM 24.6381 -81.3375 86° East 90 104 9,600 146 Climbing Miami Center
Wed 06:33:29 PM 24.6394 -81.3058 87° East 94 108 9,500 -49 Descending Miami Center
Wed 06:34:31 PM 24.6464 -81.2758 76° East 99 114 9,500 49 Level Miami Center
Wed 06:35:32 PM 24.6544 -81.2458 74° East 99 114 9,600 49 Climbing Miami Center
Wed 06:36:34 PM 24.6619 -81.2142 75° East 101 116 9,600 -48 Level Miami Center
Wed 06:37:36 PM 24.6683 -81.1836 77° East 102 117 9,500 -49 Descending Miami Center
Wed 06:38:37 PM 24.6772 -81.1542 72° East 102 117 9,500  Level Miami Center
Wed 06:39:39 PM 24.6878 -81.1206 71° East 101 116 9,500  Level Miami Center
Wed 06:40:40 PM 24.6939 -81.0906 77° East 100 115 9,500  Level Miami Center
Wed 06:41:42 PM 24.7019 -81.0592 74° East 102 117 9,500 49 Level Miami Center
Wed 06:42:43 PM 24.7139 -81.0314 65° Northeast 102 117 9,600 49 Climbing Miami Center
Wed 06:43:45 PM 24.7258 -81.0031 65° Northeast 102 117 9,600  Level Miami Center
Wed 06:44:46 PM 24.7358 -80.9733 70° East 102 117 9,600  Level Miami Center
Wed 06:45:48 PM 24.7511 -80.9461 58° Northeast 102 117 9,600  Level Miami Center
Wed 06:46:49 PM 24.7658 -80.9111 65° Northeast 102 117 9,600  Level Miami Center
Wed 06:47:51 PM 24.7800 -80.8836 60° Northeast 103 119 9,600  Level Miami Center
Wed 06:48:52 PM 24.7922 -80.8531 66° East 104 120 9,600  Level Miami Center
Wed 06:49:54 PM 24.8042 -80.8225 67° East 105 121 9,600 -49 Level Miami Center
Wed 06:50:55 PM 24.8203 -80.7942 58° Northeast 106 122 9,500 -49 Descending Miami Center
Wed 06:51:57 PM 24.8336 -80.7647 63° Northeast 107 123 9,500  Level Miami Center
Wed 06:52:58 PM 24.8467 -80.7356 64° Northeast 107 123 9,500  Level Miami Center
Wed 06:54:00 PM 24.8603 -80.7061 63° Northeast 107 123 9,500  Level Miami Center
Wed 06:55:01 PM 24.8811 -80.6744 54° Northeast 107 123 9,500  Level Miami Center
Wed 06:56:03 PM 24.9039 -80.6544 39° Northeast 107 123 9,500  Level Miami Center
Wed 06:57:04 PM 24.9272 -80.6364 35° Northeast 106 122 9,500  Level Miami Center
Wed 06:58:06 PM 24.9425 -80.6083 59° Northeast 104 120 9,500  Level Miami Center
Wed 06:59:07 PM 24.9561 -80.5803 62° Northeast 104 120 9,500 49 Level Miami Center
Wed 07:00:09 PM 24.9722 -80.5525 57° Northeast 105 121 9,600 49 Climbing Miami Center
Wed 07:01:10 PM 24.9894 -80.5261 54° Northeast 105 121 9,600  Level Miami Center
Wed 07:01:35 PM 25.0042 -80.5147 35° Northeast 108 124 9,600  Level Miami Center
Wed 07:02:12 PM 25.0172 -80.5008 44° Northeast 105 121 9,600  Level Miami Center
Wed 07:02:30 PM 25.0222 -80.4931 55° Northeast 108 124 9,600 -97 Level Miami Center
Wed 07:03:14 PM 25.0375 -80.4764 45° Northeast 106 122 9,500 -98 Descending Miami Center
Wed 07:03:31 PM 25.0428 -80.4672 58° Northeast 107 123 9,500 -492 Level Miami Center
Wed 07:04:15 PM 25.0542 -80.4486 56° Northeast 106 122 9,000 -885 Descending Miami Center
Wed 07:04:32 PM 25.0633 -80.4433 28° Northeast 111 128 8,600 -1,065 Descending Miami Center
Wed 07:05:17 PM 25.0842 -80.4464 352° North 117 135 7,900 -984 Descending Miami Center
Wed 07:05:33 PM 25.0919 -80.4525 325° Northwest 113 130 7,600 -1,065 Descending Miami Center
Wed 07:06:19 PM 25.1092 -80.4664 324° Northwest 113 130 6,800 -1,180 Descending Miami Center
Wed 07:06:34 PM 25.1181 -80.4731 326° Northwest 111 128 6,400 -1,105 Descending Miami Center
Wed 07:07:35 PM 25.1492 -80.4778 352° North 103 119 5,400 -841 Descending Miami Center
Wed 07:08:21 PM 25.1647 -80.4831 343° North 104 120 4,900 -900 Descending Miami Center
Wed 07:08:35 PM 25.1758 -80.4867 344° North 102 117 4,500 -484 Descending Miami Center
Wed 07:09:23 PM 25.1922 -80.4894 351° North 103 119 4,400  Descending Miami Center
Wed 07:09:42 PM 25.2067 -80.4936 345° North 97 112 4,500 98 Climbing Miami Center
Wed 07:10:24 PM 25.2231 -80.5000 341° North 98 113 4,500  Level Miami Center
Wed 07:10:49 PM 25.2356 -80.5028 349° North 101 116 4,500  Level Miami Center
Wed 07:11:26 PM 25.2522 -80.5053 352° North 104 120 4,500  Level Miami Center
Wed 07:11:44 PM 25.2622 -80.5097 338° Northwest 106 122 4,500 98 Level Miami Center
Wed 07:12:27 PM 25.2797 -80.5144 346° North 106 122 4,600 98 Climbing Miami Center
Wed 07:12:45 PM 25.2889 -80.5164 349° North 103 119 4,600  Level Miami Center
Wed 07:13:29 PM 25.3072 -80.5225 343° North 104 120 4,600  Level Miami Center
Wed 07:13:46 PM 25.3178 -80.5256 345° North 105 121 4,600 -197 Level Miami Center
Wed 07:14:30 PM 25.3353 -80.5306 346° North 104 120 4,400 -393 Descending Miami Center
Wed 07:14:47 PM 25.3444 -80.5344 339° North 96 110 4,200 -484 Descending Miami Center
Wed 07:15:32 PM 25.3589 -80.5372 350° North 94 108 3,900 -492 Descending Miami Center
Wed 07:15:48 PM 25.3692 -80.5411 341° North 87 100 3,700 -492 Descending Miami Center
Wed 07:16:33 PM 25.3828 -80.5411 360° North 89 102 3,400 -393 Descending Miami Center
Wed 07:16:49 PM 25.3919 -80.5428 351° North 88 101 3,300 97 Descending Miami Center
Wed 07:17:35 PM 25.4072 -80.5467 347° North 89 102 3,500 295 Climbing Miami Center
Wed 07:17:50 PM 25.4167 -80.5494 345° North 90 104 3,600 97 Climbing Miami Center
Wed 07:18:37 PM 25.4386 -80.5533 351° North 91 105 3,600 -98 Level Miami Center
Wed 07:18:51 PM 25.4436 -80.5561 333° Northwest 97 112 3,500 -295 Descending Miami Center
Wed 07:19:38 PM 25.4683 -80.5578 357° North 98 113 3,300 -393 Descending Miami Center
Wed 07:19:52 PM 25.4706 -80.5583 347° North 96 110 3,100 -581 Descending Miami Center
Wed 07:20:40 PM 25.4944 -80.5617 353° North 98 113 2,700 -492 Descending Miami Center
Wed 07:20:53 PM 25.4978 -80.5606 17° North 92 106 2,600 -441 Descending Miami Center
Wed 07:21:48 PM 25.5225 -80.5647 351° North 96 110 2,200 -491 Descending Miami Center
Wed 07:22:43 PM 25.5483 -80.5697 350° North 95 109 1,700 -359 Descending Miami Center
Wed 07:23:45 PM 25.5714 -80.5769 344° North 95 109 1,500 -49 Descending Miami Center
Wed 07:24:46 PM 25.5906 -80.5961 318° Northwest 94 108 1,600 47 Climbing Miami Center
Wed 07:25:52 PM 25.5986 -80.6217 289° West 84 97 1,600  Level Miami Center
Wed 07:26:53 PM 25.6094 -80.6481 294° West 90 104 1,600  Level Miami Center
Wed 07:27:51 PM 25.6267 -80.6639 320° Northwest 98 113 1,600 -49 Level Miami Center
Wed 07:28:55 PM 25.6353 -80.6361 71° East 93 107 1,500 -50 Descending Miami Center
Wed 07:29:50 PM 25.6369 -80.6108 86° East 92 106 1,500  Level Miami Center
Wed 07:30:56 PM 25.6381 -80.5786 88° East 92 106 1,500 49 Level Miami Center
Wed 07:31:52 PM 25.6386 -80.5508 89° East 96 110 1,600 -49 Climbing Miami Center
Wed 07:32:59 PM 25.6408 -80.5186 86° East 94 108 1,400 -328 Descending Miami Center
Wed 07:34:00 PM 25.6422 -80.4892 87° East 93 107 900 -443 Descending Miami Center
Wed 07:35:01 PM 25.6422 -80.4656 90° East 78 90 500 -393 Descending Miami Center
Wed 07:37:00 PM 25.6476 -80.4332 72° East  Level Estimated

Login

Don't have an account? Register now (free) for customized features, flight alerts, and more!